sensor_id;sensor_type;location;lat;lon;timestamp;pressure;altitude;pressure_sealevel;temperature;humidity
17950;BME280;9100;48.700;9.316;2023-03-15T00:00:51;97318.8;;;4.82;100
17950;BME280;9100;48.700;9.316;2023-03-15T00:01:50;97312.40000000001;;;4.78;100
17950;BME280;9100;48.700;9.316;2023-03-15T00:02:50;97314.9;;;4.78;100
17950;BME280;9100;48.700;9.316;2023-03-15T00:03:23;97320;;;4.78;100
17950;BME280;9100;48.700;9.316;2023-03-15T00:03:50;97321.6;;;4.79;100
17950;BME280;9100;48.700;9.316;2023-03-15T00:04:50;97326.70000000001;;;4.79;100
17950;BME280;9100;48.700;9.316;2023-03-15T00:05:50;97329.8;;;4.81;100
17950;BME280;9100;48.700;9.316;2023-03-15T00:06:50;97331.4;;;4.82;100
17950;BME280;9100;48.700;9.316;2023-03-15T00:07:50;97328.7;;;4.84;100
17950;BME280;9100;48.700;9.316;2023-03-15T00:08:23;97333.8;;;4.84;100
17950;BME280;9100;48.700;9.316;2023-03-15T00:08:50;97333.8;;;4.84;100
17950;BME280;9100;48.700;9.316;2023-03-15T00:09:50;97337;;;4.86;100
17950;BME280;9100;48.700;9.316;2023-03-15T00:10:51;97345.2;;;4.88;100
17950;BME280;9100;48.700;9.316;2023-03-15T00:11:50;97273.1;;;4.49;100
17950;BME280;9100;48.700;9.316;2023-03-15T00:12:50;97344.1;;;4.91;100
17950;BME280;9100;48.700;9.316;2023-03-15T00:13:22;97344.1;;;4.91;100
17950;BME280;9100;48.700;9.316;2023-03-15T00:13:50;97341.4;;;4.92;100
17950;BME280;9100;48.700;9.316;2023-03-15T00:14:50;97339.9;;;4.91;100
17950;BME280;9100;48.700;9.316;2023-03-15T00:15:51;97354.4;;;4.89;100
17950;BME280;9100;48.700;9.316;2023-03-15T00:16:50;97348.5;;;4.88;100
17950;BME280;9100;48.700;9.316;2023-03-15T00:17:50;97349.5;;;4.87;100
17950;BME280;9100;48.700;9.316;2023-03-15T00:18:23;97354.6;;;4.87;100
17950;BME280;9100;48.700;9.316;2023-03-15T00:18:51;97360.29999999999;;;4.89;100
17950;BME280;9100;48.700;9.316;2023-03-15T00:19:50;97359.5;;;4.89;100
17950;BME280;9100;48.700;9.316;2023-03-15T00:20:50;97363.7;;;4.88;100
17950;BME280;9100;48.700;9.316;2023-03-15T00:21:50;97356.3;;;4.87;100
17950;BME280;9100;48.700;9.316;2023-03-15T00:22:50;97364;;;4.85;100
17950;BME280;9100;48.700;9.316;2023-03-15T00:23:23;97369.8;;;4.87;100
17950;BME280;9100;48.700;9.316;2023-03-15T00:23:50;97374.2;;;4.85;100
17950;BME280;9100;48.700;9.316;2023-03-15T00:24:50;97374.8;;;4.87;100
17950;BME280;9100;48.700;9.316;2023-03-15T00:25:50;97362.09999999999;;;4.79;100
17950;BME280;9100;48.700;9.316;2023-03-15T00:26:50;97377.4;;;4.87;100
17950;BME280;9100;48.700;9.316;2023-03-15T00:27:50;97378;;;4.89;100
17950;BME280;9100;48.700;9.316;2023-03-15T00:28:22;97382.3;;;4.89;100
17950;BME280;9100;48.700;9.316;2023-03-15T00:28:50;97382.3;;;4.89;100
17950;BME280;9100;48.700;9.316;2023-03-15T00:29:50;97386.5;;;4.88;100
17950;BME280;9100;48.700;9.316;2023-03-15T00:30:58;97386.5;;;4.88;100
17950;BME280;9100;48.700;9.316;2023-03-15T00:31:50;97395.7;;;4.89;100
17950;BME280;9100;48.700;9.316;2023-03-15T00:32:51;97392.4;;;4.89;100
17950;BME280;9100;48.700;9.316;2023-03-15T00:33:22;97403.3;;;4.89;100
17950;BME280;9100;48.700;9.316;2023-03-15T00:33:50;97391.6;;;4.88;100
17950;BME280;9100;48.700;9.316;2023-03-15T00:34:50;97399.90000000001;;;4.91;100
17950;BME280;9100;48.700;9.316;2023-03-15T00:35:50;97405.6;;;4.93;100
17950;BME280;9100;48.700;9.316;2023-03-15T00:36:50;97401.4;;;4.92;100
17950;BME280;9100;48.700;9.316;2023-03-15T00:37:52;97400.7;;;4.91;100
17950;BME280;9100;48.700;9.316;2023-03-15T00:38:22;97404.9;;;4.91;100
17950;BME280;9100;48.700;9.316;2023-03-15T00:38:50;97402.4;;;4.91;100
17950;BME280;9100;48.700;9.316;2023-03-15T00:39:50;97399.1;;;4.9;100
17950;BME280;9100;48.700;9.316;2023-03-15T00:40:50;97411.1;;;4.88;100
17950;BME280;9100;48.700;9.316;2023-03-15T00:41:50;97420.6;;;4.86;100
17950;BME280;9100;48.700;9.316;2023-03-15T00:42:50;97417.2;;;4.85;100
17950;BME280;9100;48.700;9.316;2023-03-15T00:43:23;97423.90000000001;;;4.86;100
17950;BME280;9100;48.700;9.316;2023-03-15T00:43:50;97419.8;;;4.85;100
17950;BME280;9100;48.700;9.316;2023-03-15T00:44:50;97419.6;;;4.87;100
17950;BME280;9100;48.700;9.316;2023-03-15T00:45:50;97422;;;4.88;100
17950;BME280;9100;48.700;9.316;2023-03-15T00:46:50;97421.2;;;4.88;100
17950;BME280;9100;48.700;9.316;2023-03-15T00:47:50;97417.9;;;4.87;100
17950;BME280;9100;48.700;9.316;2023-03-15T00:48:22;97420.4;;;4.87;100
17950;BME280;9100;48.700;9.316;2023-03-15T00:48:50;97423;;;4.87;100
17950;BME280;9100;48.700;9.316;2023-03-15T00:49:50;97425.5;;;4.87;100
17950;BME280;9100;48.700;9.316;2023-03-15T00:50:50;97427.20000000001;;;4.87;100
17950;BME280;9100;48.700;9.316;2023-03-15T00:51:53;97431.3;;;4.88;100
17950;BME280;9100;48.700;9.316;2023-03-15T00:52:50;97432.3;;;4.87;100
17950;BME280;9100;48.700;9.316;2023-03-15T00:53:23;97432.4;;;4.85;100
17950;BME280;9100;48.700;9.316;2023-03-15T00:53:50;97434;;;4.86;100
17950;BME280;9100;48.700;9.316;2023-03-15T00:54:50;97431.3;;;4.88;100
17950;BME280;9100;48.700;9.316;2023-03-15T00:55:50;97438.8;;;4.89;100
17950;BME280;9100;48.700;9.316;2023-03-15T00:56:50;97443.9;;;4.89;100
17950;BME280;9100;48.700;9.316;2023-03-15T00:57:50;97441.3;;;4.89;100
17950;BME280;9100;48.700;9.316;2023-03-15T00:58:23;97447.29999999999;;;4.88;100
17950;BME280;9100;48.700;9.316;2023-03-15T00:58:50;97438.8;;;4.89;100
17950;BME280;9100;48.700;9.316;2023-03-15T00:59:50;97443.9;;;4.89;100
17950;BME280;9100;48.700;9.316;2023-03-15T01:00:50;97444.8;;;4.88;100
17950;BME280;9100;48.700;9.316;2023-03-15T01:01:50;97440.5;;;4.89;100
17950;BME280;9100;48.700;9.316;2023-03-15T01:02:50;97450.8;;;4.87;100
17950;BME280;9100;48.700;9.316;2023-03-15T01:03:23;97448.29999999999;;;4.87;100
17950;BME280;9100;48.700;9.316;2023-03-15T01:03:50;97450.8;;;4.87;100
17950;BME280;9100;48.700;9.316;2023-03-15T01:04:50;97450.7;;;4.89;100
17950;BME280;9100;48.700;9.316;2023-03-15T01:05:50;97459.1;;;4.89;100
17950;BME280;9100;48.700;9.316;2023-03-15T01:06:50;97454;;;4.89;100
17950;BME280;9100;48.700;9.316;2023-03-15T01:07:50;97458.1;;;4.91;100
17950;BME280;9100;48.700;9.316;2023-03-15T01:08:22;97457.2;;;4.92;100
17950;BME280;9100;48.700;9.316;2023-03-15T01:08:50;97459.90000000001;;;4.9;100
17950;BME280;9100;48.700;9.316;2023-03-15T01:09:50;97456.5;;;4.89;100
17950;BME280;9100;48.700;9.316;2023-03-15T01:10:50;97457.2;;;4.92;100
17950;BME280;9100;48.700;9.316;2023-03-15T01:11:50;97462.2;;;4.92;100
17950;BME280;9100;48.700;9.316;2023-03-15T01:12:50;97461.3;;;4.93;100
17950;BME280;9100;48.700;9.316;2023-03-15T01:13:23;97470.6;;;4.92;100
17950;BME280;9100;48.700;9.316;2023-03-15T01:13:50;97472.40000000001;;;4.92;100
17950;BME280;9100;48.700;9.316;2023-03-15T01:14:50;97463.8;;;4.93;100
17950;BME280;9100;48.700;9.316;2023-03-15T01:15:50;97468.9;;;4.93;100
17950;BME280;9100;48.700;9.316;2023-03-15T01:16:50;97462.2;;;4.92;100
17950;BME280;9100;48.700;9.316;2023-03-15T01:17:50;97469.2;;;4.89;100
17950;BME280;9100;48.700;9.316;2023-03-15T01:18:23;97467.6;;;4.88;100
17950;BME280;9100;48.700;9.316;2023-03-15T01:18:50;97471.90000000001;;;4.88;100
17950;BME280;9100;48.700;9.316;2023-03-15T01:19:50;97470.3;;;4.87;100
17950;BME280;9100;48.700;9.316;2023-03-15T01:20:50;97471.1;;;4.87;100
17950;BME280;9100;48.700;9.316;2023-03-15T01:21:50;97467.6;;;4.88;100
17950;BME280;9100;48.700;9.316;2023-03-15T01:22:50;97471.1;;;4.87;100
17950;BME280;9100;48.700;9.316;2023-03-15T01:23:23;97467.8;;;4.87;100
17950;BME280;9100;48.700;9.316;2023-03-15T01:23:50;97472.7;;;4.88;100
17950;BME280;9100;48.700;9.316;2023-03-15T01:24:50;97474.3;;;4.89;100
17950;BME280;9100;48.700;9.316;2023-03-15T01:25:50;97471.7;;;4.89;100
17950;BME280;9100;48.700;9.316;2023-03-15T01:26:50;97470.8;;;4.91;100
17950;BME280;9100;48.700;9.316;2023-03-15T01:27:50;97475.09999999999;;;4.9;100
17950;BME280;9100;48.700;9.316;2023-03-15T01:28:23;97474.90000000001;;;4.92;100
17950;BME280;9100;48.700;9.316;2023-03-15T01:28:50;97343.9;;;4.07;100
17950;BME280;9100;48.700;9.316;2023-03-15T01:29:50;97475.9;;;4.91;100
17950;BME280;9100;48.700;9.316;2023-03-15T01:30:50;97477.4;;;4.92;100
17950;BME280;9100;48.700;9.316;2023-03-15T01:31:50;97488.4;;;4.92;100
17950;BME280;9100;48.700;9.316;2023-03-15T01:32:50;97480;;;4.92;100
17950;BME280;9100;48.700;9.316;2023-03-15T01:33:23;97482.5;;;4.92;100
17950;BME280;9100;48.700;9.316;2023-03-15T01:33:50;97480.6;;;4.94;100
17950;BME280;9100;48.700;9.316;2023-03-15T01:34:50;97483.2;;;4.94;100
17950;BME280;9100;48.700;9.316;2023-03-15T01:35:56;97484.6;;;4.96;100
17950;BME280;9100;48.700;9.316;2023-03-15T01:36:50;97486.2;;;4.97;100
17950;BME280;9100;48.700;9.316;2023-03-15T01:37:50;97493.8;;;4.97;100
17950;BME280;9100;48.700;9.316;2023-03-15T01:38:23;97488.59999999999;;;4.99;100
17950;BME280;9100;48.700;9.316;2023-03-15T01:38:50;97485.29999999999;;;4.98;100
17950;BME280;9100;48.700;9.316;2023-03-15T01:39:50;97489.4;;;4.99;100
17950;BME280;9100;48.700;9.316;2023-03-15T01:40:50;97490.20000000001;;;5;100
17950;BME280;9100;48.700;9.316;2023-03-15T01:41:50;97492.7;;;5;100
17950;BME280;9100;48.700;9.316;2023-03-15T01:42:51;97499.5;;;4.99;100
17950;BME280;9100;48.700;9.316;2023-03-15T01:43:23;97492.1;;;4.98;100
17950;BME280;9100;48.700;9.316;2023-03-15T01:43:50;97498.7;;;4.99;100
17950;BME280;9100;48.700;9.316;2023-03-15T01:44:51;97504.4;;;5.01;100
17950;BME280;9100;48.700;9.316;2023-03-15T01:45:56;97502.8;;;5;100
17950;BME280;9100;48.700;9.316;2023-03-15T01:46:50;97512.2;;;4.99;100
17950;BME280;9100;48.700;9.316;2023-03-15T01:47:50;97505;;;4.95;100
17950;BME280;9100;48.700;9.316;2023-03-15T01:48:23;97506.8;;;4.94;100
17950;BME280;9100;48.700;9.316;2023-03-15T01:48:52;97507.8;;;4.92;100
17950;BME280;9100;48.700;9.316;2023-03-15T01:49:51;97501.59999999999;;;4.86;100
17950;BME280;9100;48.700;9.316;2023-03-15T01:50:50;97509.5;;;4.83;100
17950;BME280;9100;48.700;9.316;2023-03-15T01:51:50;97520.7;;;4.8;100
17950;BME280;9100;48.700;9.316;2023-03-15T01:52:50;97505;;;4.77;100
17950;BME280;9100;48.700;9.316;2023-03-15T01:53:23;97508.4;;;4.77;100
17950;BME280;9100;48.700;9.316;2023-03-15T01:53:51;97516;;;4.77;100
17950;BME280;9100;48.700;9.316;2023-03-15T01:54:50;97512.8;;;4.75;100
17950;BME280;9100;48.700;9.316;2023-03-15T01:55:50;97514.5;;;4.75;100
17950;BME280;9100;48.700;9.316;2023-03-15T01:56:51;97511.5;;;4.71;100
17950;BME280;9100;48.700;9.316;2023-03-15T01:57:50;97516.5;;;4.71;100
17950;BME280;9100;48.700;9.316;2023-03-15T01:58:23;97516.8;;;4.68;100
17950;BME280;9100;48.700;9.316;2023-03-15T01:58:50;97513.3;;;4.69;100
17950;BME280;9100;48.700;9.316;2023-03-15T01:59:51;97521.90000000001;;;4.68;100
17950;BME280;9100;48.700;9.316;2023-03-15T02:00:50;97521.1;;;4.68;100
17950;BME280;9100;48.700;9.316;2023-03-15T02:01:50;97523.8;;;4.66;100
17950;BME280;9100;48.700;9.316;2023-03-15T02:02:50;97523.8;;;4.66;100
17950;BME280;9100;48.700;9.316;2023-03-15T02:03:24;97522.2;;;4.65;100
17950;BME280;9100;48.700;9.316;2023-03-15T02:03:51;97527.20000000001;;;4.65;100
17950;BME280;9100;48.700;9.316;2023-03-15T02:04:52;97521.40000000001;;;4.65;100
17950;BME280;9100;48.700;9.316;2023-03-15T02:05:51;97527.20000000001;;;4.65;100
17950;BME280;9100;48.700;9.316;2023-03-15T02:06:51;97524.90000000001;;;4.64;100
17950;BME280;9100;48.700;9.316;2023-03-15T02:07:50;97531;;;4.61;100
17950;BME280;9100;48.700;9.316;2023-03-15T02:08:23;97537.7;;;4.62;100
17950;BME280;9100;48.700;9.316;2023-03-15T02:08:50;97532.6;;;4.62;100
17950;BME280;9100;48.700;9.316;2023-03-15T02:09:52;97528.5;;;4.61;100
17950;BME280;9100;48.700;9.316;2023-03-15T02:10:51;97537;;;4.6;100
17950;BME280;9100;48.700;9.316;2023-03-15T02:11:50;97527.8;;;4.59;100
17950;BME280;9100;48.700;9.316;2023-03-15T02:12:50;97531.3;;;4.58;100
17950;BME280;9100;48.700;9.316;2023-03-15T02:13:23;97539.8;;;4.57;100
17950;BME280;9100;48.700;9.316;2023-03-15T02:13:50;97539.8;;;4.57;100
17950;BME280;9100;48.700;9.316;2023-03-15T02:14:50;97544.9;;;4.57;100
17950;BME280;9100;48.700;9.316;2023-03-15T02:15:51;97543.2;;;4.58;100
17950;BME280;9100;48.700;9.316;2023-03-15T02:16:50;97542.2;;;4.59;100
17950;BME280;9100;48.700;9.316;2023-03-15T02:17:50;97544.6;;;4.6;100
17950;BME280;9100;48.700;9.316;2023-03-15T02:18:23;97543.8;;;4.6;100
17950;BME280;9100;48.700;9.316;2023-03-15T02:18:50;97548.1;;;4.59;100
17950;BME280;9100;48.700;9.316;2023-03-15T02:19:51;97547.1;;;4.6;100
17950;BME280;9100;48.700;9.316;2023-03-15T02:20:52;97549.7;;;4.6;100
17950;BME280;9100;48.700;9.316;2023-03-15T02:21:53;97550.59999999999;;;4.59;100
17950;BME280;9100;48.700;9.316;2023-03-15T02:22:51;97550.59999999999;;;4.59;100
17950;BME280;9100;48.700;9.316;2023-03-15T02:23:23;97553.9;;;4.6;100
17950;BME280;9100;48.700;9.316;2023-03-15T02:23:52;97548.90000000001;;;4.6;100
17950;BME280;9100;48.700;9.316;2023-03-15T02:24:51;97551.3;;;4.61;100
17950;BME280;9100;48.700;9.316;2023-03-15T02:25:51;97549.7;;;4.6;100
17950;BME280;9100;48.700;9.316;2023-03-15T02:26:50;97548;;;4.61;100
17950;BME280;9100;48.700;9.316;2023-03-15T02:27:50;97547.29999999999;;;4.59;100
17950;BME280;9100;48.700;9.316;2023-03-15T02:28:23;97536.3;;;4.5;100
17950;BME280;9100;48.700;9.316;2023-03-15T02:28:50;97550.59999999999;;;4.59;100
17950;BME280;9100;48.700;9.316;2023-03-15T02:29:50;97551.5;;;4.58;100
17950;BME280;9100;48.700;9.316;2023-03-15T02:30:50;97555;;;4.57;100
17950;BME280;9100;48.700;9.316;2023-03-15T02:31:50;97555;;;4.57;100
17950;BME280;9100;48.700;9.316;2023-03-15T02:32:50;97558.5;;;4.56;100
17950;BME280;9100;48.700;9.316;2023-03-15T02:33:24;97560.2;;;4.56;100
17950;BME280;9100;48.700;9.316;2023-03-15T02:33:51;97554.4;;;4.55;100
17950;BME280;9100;48.700;9.316;2023-03-15T02:34:50;97560.90000000001;;;4.58;100
17950;BME280;9100;48.700;9.316;2023-03-15T02:35:50;97558.2;;;4.59;100
17950;BME280;9100;48.700;9.316;2023-03-15T02:36:50;97563.3;;;4.59;100
17950;BME280;9100;48.700;9.316;2023-03-15T02:37:50;97559;;;4.6;100
17950;BME280;9100;48.700;9.316;2023-03-15T02:38:23;97559;;;4.6;100
17950;BME280;9100;48.700;9.316;2023-03-15T02:38:50;97563.3;;;4.59;100
17950;BME280;9100;48.700;9.316;2023-03-15T02:39:50;97559.79999999999;;;4.6;100
17950;BME280;9100;48.700;9.316;2023-03-15T02:40:50;97564.70000000001;;;4.62;100
17950;BME280;9100;48.700;9.316;2023-03-15T02:41:51;97559.79999999999;;;4.6;100
17950;BME280;9100;48.700;9.316;2023-03-15T02:42:50;97565.8;;;4.59;100
17950;BME280;9100;48.700;9.316;2023-03-15T02:43:23;97568.3;;;4.59;100
17950;BME280;9100;48.700;9.316;2023-03-15T02:43:50;97562.3;;;4.6;100
17950;BME280;9100;48.700;9.316;2023-03-15T02:44:50;97562.3;;;4.6;100
17950;BME280;9100;48.700;9.316;2023-03-15T02:45:50;97569.8;;;4.62;100
17950;BME280;9100;48.700;9.316;2023-03-15T02:46:50;97572.5;;;4.6;100
17950;BME280;9100;48.700;9.316;2023-03-15T02:47:50;97573.40000000001;;;4.59;100
17950;BME280;9100;48.700;9.316;2023-03-15T02:48:23;97577.8;;;4.57;100
17950;BME280;9100;48.700;9.316;2023-03-15T02:48:50;97581.4;;;4.55;100
17950;BME280;9100;48.700;9.316;2023-03-15T02:49:51;97579.8;;;4.54;100
17950;BME280;9100;48.700;9.316;2023-03-15T02:50:50;97585;;;4.52;100
17950;BME280;9100;48.700;9.316;2023-03-15T02:51:50;97583.4;;;4.51;100
17950;BME280;9100;48.700;9.316;2023-03-15T02:52:51;97584.2;;;4.52;100
17950;BME280;9100;48.700;9.316;2023-03-15T02:53:22;97577.70000000001;;;4.49;100
17950;BME280;9100;48.700;9.316;2023-03-15T02:53:50;97583.6;;;4.5;100
17950;BME280;9100;48.700;9.316;2023-03-15T02:54:51;97589.5;;;4.5;100
17950;BME280;9100;48.700;9.316;2023-03-15T02:55:50;97582.9;;;4.48;100
17950;BME280;9100;48.700;9.316;2023-03-15T02:56:50;97588.09999999999;;;4.46;100
17950;BME280;9100;48.700;9.316;2023-03-15T02:57:50;97583.3;;;4.43;100
17950;BME280;9100;48.700;9.316;2023-03-15T02:58:22;97597;;;4.42;100
17950;BME280;9100;48.700;9.316;2023-03-15T02:58:50;97595.4;;;4.41;100
17950;BME280;9100;48.700;9.316;2023-03-15T02:59:51;97592.7;;;4.43;100
17950;BME280;9100;48.700;9.316;2023-03-15T03:00:51;97598.7;;;4.42;100
17950;BME280;9100;48.700;9.316;2023-03-15T03:01:50;97598;;;4.39;100
17950;BME280;9100;48.700;9.316;2023-03-15T03:02:50;97594.7;;;4.39;100
17950;BME280;9100;48.700;9.316;2023-03-15T03:03:23;97597.5;;;4.36;100
17950;BME280;9100;48.700;9.316;2023-03-15T03:03:50;97595.1;;;4.34;100
17950;BME280;9100;48.700;9.316;2023-03-15T03:04:51;97602.70000000001;;;4.34;100
17950;BME280;9100;48.700;9.316;2023-03-15T03:05:50;97602.09999999999;;;4.32;100
17950;BME280;9100;48.700;9.316;2023-03-15T03:06:50;97601.5;;;4.29;100
17950;BME280;9100;48.700;9.316;2023-03-15T03:07:50;97600.9;;;4.27;100
17950;BME280;9100;48.700;9.316;2023-03-15T03:08:23;97605.3;;;4.25;100
17950;BME280;9100;48.700;9.316;2023-03-15T03:08:50;97605.3;;;4.25;100
17950;BME280;9100;48.700;9.316;2023-03-15T03:09:50;97608;;;4.23;100
17950;BME280;9100;48.700;9.316;2023-03-15T03:10:50;97609.7;;;4.23;100
17950;BME280;9100;48.700;9.316;2023-03-15T03:11:50;97614.9;;;4.21;100
17950;BME280;9100;48.700;9.316;2023-03-15T03:12:50;97613.59999999999;;;4.17;100
17950;BME280;9100;48.700;9.316;2023-03-15T03:13:22;97616.3;;;4.16;100
17950;BME280;9100;48.700;9.316;2023-03-15T03:13:50;97615.5;;;4.15;100
17950;BME280;9100;48.700;9.316;2023-03-15T03:14:50;97623.2;;;4.14;100
17950;BME280;9100;48.700;9.316;2023-03-15T03:15:50;97617.5;;;4.12;100
17950;BME280;9100;48.700;9.316;2023-03-15T03:16:50;97618.4;;;4.11;100
17950;BME280;9100;48.700;9.316;2023-03-15T03:17:50;97617.6;;;4.1;100
17950;BME280;9100;48.700;9.316;2023-03-15T03:18:23;97632;;;4.1;100
17950;BME280;9100;48.700;9.316;2023-03-15T03:18:50;97624.40000000001;;;4.1;100
17950;BME280;9100;48.700;9.316;2023-03-15T03:19:50;97627.70000000001;;;4.1;100
17950;BME280;9100;48.700;9.316;2023-03-15T03:20:50;97629.3;;;4.11;100
17950;BME280;9100;48.700;9.316;2023-03-15T03:21:50;97632;;;4.1;100
17950;BME280;9100;48.700;9.316;2023-03-15T03:22:50;97623.5;;;4.11;100
17950;BME280;9100;48.700;9.316;2023-03-15T03:23:23;97631.9;;;4.11;100
17950;BME280;9100;48.700;9.316;2023-03-15T03:23:50;97633.6;;;4.11;100
17950;BME280;9100;48.700;9.316;2023-03-15T03:24:50;97627.59999999999;;;4.12;100
17950;BME280;9100;48.700;9.316;2023-03-15T03:25:50;97639.59999999999;;;4.1;100
17950;BME280;9100;48.700;9.316;2023-03-15T03:26:50;97637.2;;;4.08;100
17950;BME280;9100;48.700;9.316;2023-03-15T03:27:50;97638.9;;;4.08;100
17950;BME280;9100;48.700;9.316;2023-03-15T03:28:23;97642.4;;;4.07;100
17950;BME280;9100;48.700;9.316;2023-03-15T03:28:50;97642.4;;;4.07;100
17950;BME280;9100;48.700;9.316;2023-03-15T03:29:50;97649.2;;;4.06;100
17950;BME280;9100;48.700;9.316;2023-03-15T03:30:50;97653.59999999999;;;4.04;100
17950;BME280;9100;48.700;9.316;2023-03-15T03:31:50;97657;;;4.03;100
17950;BME280;9100;48.700;9.316;2023-03-15T03:32:50;97657.3;;;4;100
17950;BME280;9100;48.700;9.316;2023-03-15T03:33:23;97648.29999999999;;;3.98;100
17950;BME280;9100;48.700;9.316;2023-03-15T03:33:50;97658.4;;;3.98;100
17950;BME280;9100;48.700;9.316;2023-03-15T03:34:50;97655.1;;;3.97;100
17950;BME280;9100;48.700;9.316;2023-03-15T03:35:50;97658.4;;;3.98;100
17950;BME280;9100;48.700;9.316;2023-03-15T03:36:50;97656.8;;;3.97;100
17950;BME280;9100;48.700;9.316;2023-03-15T03:37:50;97659.3;;;3.97;100
17950;BME280;9100;48.700;9.316;2023-03-15T03:38:23;97661.90000000001;;;3.97;100
17950;BME280;9100;48.700;9.316;2023-03-15T03:38:50;97661.90000000001;;;3.97;100
17950;BME280;9100;48.700;9.316;2023-03-15T03:39:50;97665.3;;;3.96;100
17950;BME280;9100;48.700;9.316;2023-03-15T03:40:50;97666.9;;;3.97;100
17950;BME280;9100;48.700;9.316;2023-03-15T03:41:50;97667.2;;;3.94;100
17950;BME280;9100;48.700;9.316;2023-03-15T03:42:50;97664.9;;;3.9;100
17950;BME280;9100;48.700;9.316;2023-03-15T03:43:23;97671.7;;;3.9;100
17950;BME280;9100;48.700;9.316;2023-03-15T03:43:50;97669.3;;;3.88;100
17950;BME280;9100;48.700;9.316;2023-03-15T03:44:50;97665.9;;;3.89;100
17950;BME280;9100;48.700;9.316;2023-03-15T03:45:50;97663.3;;;3.89;100
17950;BME280;9100;48.700;9.316;2023-03-15T03:46:50;97670.1;;;3.89;100
17950;BME280;9100;48.700;9.316;2023-03-15T03:47:50;97670.9;;;3.89;100
17950;BME280;9100;48.700;9.316;2023-03-15T03:48:23;97670.9;;;3.89;100
17950;BME280;9100;48.700;9.316;2023-03-15T03:48:50;97677.59999999999;;;3.9;100
17950;BME280;9100;48.700;9.316;2023-03-15T03:49:51;97674.40000000001;;;3.88;100
17950;BME280;9100;48.700;9.316;2023-03-15T03:50:50;97677.09999999999;;;3.87;100
17950;BME280;9100;48.700;9.316;2023-03-15T03:51:50;97683.90000000001;;;3.86;100
17950;BME280;9100;48.700;9.316;2023-03-15T03:52:50;97689;;;3.85;100
17950;BME280;9100;48.700;9.316;2023-03-15T03:53:23;97684;;;3.85;100
17950;BME280;9100;48.700;9.316;2023-03-15T03:53:50;97678.09999999999;;;3.84;100
17950;BME280;9100;48.700;9.316;2023-03-15T03:54:50;97682.3;;;3.85;100
17950;BME280;9100;48.700;9.316;2023-03-15T03:55:50;97684.79999999999;;;3.85;100
17950;BME280;9100;48.700;9.316;2023-03-15T03:56:50;97686.40000000001;;;3.86;100
17950;BME280;9100;48.700;9.316;2023-03-15T03:57:50;97687.2;;;3.87;100
17950;BME280;9100;48.700;9.316;2023-03-15T03:58:23;97688;;;3.87;100
17950;BME280;9100;48.700;9.316;2023-03-15T03:58:50;97690.5;;;3.87;100
17950;BME280;9100;48.700;9.316;2023-03-15T03:59:50;97694.6;;;3.88;100
17950;BME280;9100;48.700;9.316;2023-03-15T04:00:50;97694.9;;;3.85;100
17950;BME280;9100;48.700;9.316;2023-03-15T04:01:50;97705;;;3.85;100
17950;BME280;9100;48.700;9.316;2023-03-15T04:02:51;97700.09999999999;;;3.84;100
17950;BME280;9100;48.700;9.316;2023-03-15T04:03:22;97701.8;;;3.83;100
17950;BME280;9100;48.700;9.316;2023-03-15T04:03:50;97702.8;;;3.82;100
17950;BME280;9100;48.700;9.316;2023-03-15T04:04:50;97703.7;;;3.81;100
17950;BME280;9100;48.700;9.316;2023-03-15T04:05:50;97703.8;;;3.8;100
17950;BME280;9100;48.700;9.316;2023-03-15T04:06:50;97636.90000000001;;;3.36;100
17950;BME280;9100;48.700;9.316;2023-03-15T04:07:50;97708.3;;;3.76;100
17950;BME280;9100;48.700;9.316;2023-03-15T04:08:23;97694.8;;;3.77;100
17950;BME280;9100;48.700;9.316;2023-03-15T04:08:50;97695.8;;;3.75;100
17950;BME280;9100;48.700;9.316;2023-03-15T04:09:50;97699.2;;;3.75;100
17950;BME280;9100;48.700;9.316;2023-03-15T04:10:50;97698.40000000001;;;3.75;100
17950;BME280;9100;48.700;9.316;2023-03-15T04:11:50;97704.2;;;3.75;100
17950;BME280;9100;48.700;9.316;2023-03-15T04:12:50;97708.5;;;3.75;100
17950;BME280;9100;48.700;9.316;2023-03-15T04:13:23;97702.59999999999;;;3.74;100
17950;BME280;9100;48.700;9.316;2023-03-15T04:13:50;97707.7;;;3.74;100
17950;BME280;9100;48.700;9.316;2023-03-15T04:14:50;97705.2;;;3.74;100
17950;BME280;9100;48.700;9.316;2023-03-15T04:15:51;97711.1;;;3.73;100
17950;BME280;9100;48.700;9.316;2023-03-15T04:16:50;97714.8;;;3.71;100
17950;BME280;9100;48.700;9.316;2023-03-15T04:17:50;97712.3;;;3.69;100
17950;BME280;9100;48.700;9.316;2023-03-15T04:18:23;97717.4;;;3.69;100
17950;BME280;9100;48.700;9.316;2023-03-15T04:18:50;97714.09999999999;;;3.69;100
17950;BME280;9100;48.700;9.316;2023-03-15T04:19:50;97716.7;;;3.67;100
17950;BME280;9100;48.700;9.316;2023-03-15T04:20:50;97715.3;;;3.65;100
17950;BME280;9100;48.700;9.316;2023-03-15T04:21:50;97722.1;;;3.64;100
17950;BME280;9100;48.700;9.316;2023-03-15T04:22:50;97718.9;;;3.62;100
17950;BME280;9100;48.700;9.316;2023-03-15T04:23:23;97725.8;;;3.6;100
17950;BME280;9100;48.700;9.316;2023-03-15T04:23:50;97721.5;;;3.61;100
17950;BME280;9100;48.700;9.316;2023-03-15T04:24:50;97726.59999999999;;;3.61;100
17950;BME280;9100;48.700;9.316;2023-03-15T04:25:50;97724.2;;;3.59;100
17950;BME280;9100;48.700;9.316;2023-03-15T04:26:50;97724.2;;;3.59;100
17950;BME280;9100;48.700;9.316;2023-03-15T04:27:50;97730.3;;;3.57;100
17950;BME280;9100;48.700;9.316;2023-03-15T04:28:23;97732.3;;;3.53;100
17950;BME280;9100;48.700;9.316;2023-03-15T04:28:51;97705.8;;;3.38;100
17950;BME280;9100;48.700;9.316;2023-03-15T04:29:50;97734.6;;;3.56;100
17950;BME280;9100;48.700;9.316;2023-03-15T04:30:50;97737.09999999999;;;3.56;100
17950;BME280;9100;48.700;9.316;2023-03-15T04:31:50;97733.90000000001;;;3.54;100
17950;BME280;9100;48.700;9.316;2023-03-15T04:32:50;97732.2;;;3.55;100
17950;BME280;9100;48.700;9.316;2023-03-15T04:33:23;97736.40000000001;;;3.54;100
17950;BME280;9100;48.700;9.316;2023-03-15T04:33:50;97741.5;;;3.54;100
17950;BME280;9100;48.700;9.316;2023-03-15T04:34:50;97735.40000000001;;;3.57;100
17950;BME280;9100;48.700;9.316;2023-03-15T04:35:50;97619.5;;;2.75;100
17950;BME280;9100;48.700;9.316;2023-03-15T04:36:50;97742.3;;;3.55;100
17950;BME280;9100;48.700;9.316;2023-03-15T04:37:50;97739.8;;;3.55;100